sensor_id;sensor_type;location;lat;lon;timestamp;P1;durP1;ratioP1;P2;durP2;ratioP2
60014;SDS011;45867;52.480;6.056;2023-06-19T00:02:08;11.32;;;7.43;;
60014;SDS011;45867;52.480;6.056;2023-06-19T00:04:34;12.57;;;7.40;;
60014;SDS011;45867;52.480;6.056;2023-06-19T00:06:59;9.80;;;7.30;;
60014;SDS011;45867;52.480;6.056;2023-06-19T00:09:25;12.38;;;7.60;;
60014;SDS011;45867;52.480;6.056;2023-06-19T00:11:50;13.60;;;7.50;;
60014;SDS011;45867;52.480;6.056;2023-06-19T00:14:16;11.63;;;7.32;;
60014;SDS011;45867;52.480;6.056;2023-06-19T00:16:42;9.70;;;7.22;;
60014;SDS011;45867;52.480;6.056;2023-06-19T00:19:08;12.43;;;7.47;;
60014;SDS011;45867;52.480;6.056;2023-06-19T00:21:34;13.93;;;7.72;;
60014;SDS011;45867;52.480;6.056;2023-06-19T00:23:59;12.63;;;7.20;;
60014;SDS011;45867;52.480;6.056;2023-06-19T00:26:24;19.27;;;7.43;;
60014;SDS011;45867;52.480;6.056;2023-06-19T00:28:50;11.85;;;7.40;;
60014;SDS011;45867;52.480;6.056;2023-06-19T00:31:16;13.40;;;7.75;;
60014;SDS011;45867;52.480;6.056;2023-06-19T00:33:43;10.75;;;7.15;;
60014;SDS011;45867;52.480;6.056;2023-06-19T00:36:09;10.40;;;7.03;;
60014;SDS011;45867;52.480;6.056;2023-06-19T00:38:35;11.15;;;7.03;;
60014;SDS011;45867;52.480;6.056;2023-06-19T00:41:01;12.90;;;7.35;;
60014;SDS011;45867;52.480;6.056;2023-06-19T00:43:26;8.75;;;6.60;;
60014;SDS011;45867;52.480;6.056;2023-06-19T00:45:51;9.23;;;6.47;;
60014;SDS011;45867;52.480;6.056;2023-06-19T00:48:17;15.55;;;6.85;;
60014;SDS011;45867;52.480;6.056;2023-06-19T00:50:42;14.77;;;6.97;;
60014;SDS011;45867;52.480;6.056;2023-06-19T00:53:08;13.93;;;7.35;;
60014;SDS011;45867;52.480;6.056;2023-06-19T00:55:34;10.75;;;7.20;;
60014;SDS011;45867;52.480;6.056;2023-06-19T00:58:00;11.40;;;6.72;;
60014;SDS011;45867;52.480;6.056;2023-06-19T01:00:26;12.50;;;6.95;;
60014;SDS011;45867;52.480;6.056;2023-06-19T01:02:51;9.38;;;6.72;;
60014;SDS011;45867;52.480;6.056;2023-06-19T01:05:16;15.00;;;6.50;;
60014;SDS011;45867;52.480;6.056;2023-06-19T01:10:23;13.32;;;6.93;;
60014;SDS011;45867;52.480;6.056;2023-06-19T01:15:43;12.60;;;6.93;;
60014;SDS011;45867;52.480;6.056;2023-06-19T01:18:09;8.88;;;6.40;;
60014;SDS011;45867;52.480;6.056;2023-06-19T01:20:37;9.32;;;6.97;;
60014;SDS011;45867;52.480;6.056;2023-06-19T01:23:10;9.65;;;6.85;;
60014;SDS011;45867;52.480;6.056;2023-06-19T01:25:36;12.80;;;6.63;;
60014;SDS011;45867;52.480;6.056;2023-06-19T01:28:06;12.45;;;6.97;;
60014;SDS011;45867;52.480;6.056;2023-06-19T01:30:34;8.63;;;6.40;;
60014;SDS011;45867;52.480;6.056;2023-06-19T01:33:05;13.68;;;6.18;;
60014;SDS011;45867;52.480;6.056;2023-06-19T01:35:38;9.43;;;6.60;;
60014;SDS011;45867;52.480;6.056;2023-06-19T01:38:07;10.70;;;7.00;;
60014;SDS011;45867;52.480;6.056;2023-06-19T01:40:33;9.80;;;6.40;;
60014;SDS011;45867;52.480;6.056;2023-06-19T01:43:00;10.45;;;6.90;;
60014;SDS011;45867;52.480;6.056;2023-06-19T01:45:29;11.32;;;6.65;;
60014;SDS011;45867;52.480;6.056;2023-06-19T01:47:55;8.93;;;6.60;;
60014;SDS011;45867;52.480;6.056;2023-06-19T01:50:21;9.70;;;6.90;;
60014;SDS011;45867;52.480;6.056;2023-06-19T01:52:47;13.10;;;7.03;;
60014;SDS011;45867;52.480;6.056;2023-06-19T01:55:13;14.45;;;6.93;;
60014;SDS011;45867;52.480;6.056;2023-06-19T01:57:39;19.23;;;6.68;;
60014;SDS011;45867;52.480;6.056;2023-06-19T02:00:04;12.40;;;6.65;;
60014;SDS011;45867;52.480;6.056;2023-06-19T02:02:32;10.45;;;6.65;;
60014;SDS011;45867;52.480;6.056;2023-06-19T02:04:57;10.90;;;6.82;;
60014;SDS011;45867;52.480;6.056;2023-06-19T02:07:23;10.20;;;6.70;;
60014;SDS011;45867;52.480;6.056;2023-06-19T02:09:48;12.20;;;6.07;;
60014;SDS011;45867;52.480;6.056;2023-06-19T02:12:13;9.13;;;6.50;;
60014;SDS011;45867;52.480;6.056;2023-06-19T02:14:39;9.13;;;6.38;;
60014;SDS011;45867;52.480;6.056;2023-06-19T02:17:04;10.15;;;6.07;;
60014;SDS011;45867;52.480;6.056;2023-06-19T02:19:29;10.20;;;5.38;;
60014;SDS011;45867;52.480;6.056;2023-06-19T02:21:55;7.15;;;5.20;;
60014;SDS011;45867;52.480;6.056;2023-06-19T02:24:20;9.27;;;5.60;;
60014;SDS011;45867;52.480;6.056;2023-06-19T02:26:45;10.15;;;4.45;;
60014;SDS011;45867;52.480;6.056;2023-06-19T02:29:11;7.43;;;4.65;;
60014;SDS011;45867;52.480;6.056;2023-06-19T02:31:36;6.55;;;4.03;;
60014;SDS011;45867;52.480;6.056;2023-06-19T02:34:01;5.80;;;3.70;;
60014;SDS011;45867;52.480;6.056;2023-06-19T02:36:26;10.43;;;3.47;;
60014;SDS011;45867;52.480;6.056;2023-06-19T02:38:52;4.43;;;2.88;;
60014;SDS011;45867;52.480;6.056;2023-06-19T02:41:17;4.28;;;2.90;;
60014;SDS011;45867;52.480;6.056;2023-06-19T02:43:44;3.92;;;3.05;;
60014;SDS011;45867;52.480;6.056;2023-06-19T02:46:10;5.53;;;3.20;;
60014;SDS011;45867;52.480;6.056;2023-06-19T02:48:36;6.63;;;3.40;;
60014;SDS011;45867;52.480;6.056;2023-06-19T02:51:01;11.00;;;3.45;;
60014;SDS011;45867;52.480;6.056;2023-06-19T02:53:27;11.05;;;3.72;;
60014;SDS011;45867;52.480;6.056;2023-06-19T02:55:52;5.57;;;3.17;;
60014;SDS011;45867;52.480;6.056;2023-06-19T02:58:17;7.35;;;3.65;;
60014;SDS011;45867;52.480;6.056;2023-06-19T03:00:43;5.47;;;3.30;;
60014;SDS011;45867;52.480;6.056;2023-06-19T03:03:09;6.30;;;3.50;;
60014;SDS011;45867;52.480;6.056;2023-06-19T03:05:34;7.15;;;4.20;;
60014;SDS011;45867;52.480;6.056;2023-06-19T03:08:00;5.85;;;3.88;;
60014;SDS011;45867;52.480;6.056;2023-06-19T03:10:25;8.23;;;3.90;;
60014;SDS011;45867;52.480;6.056;2023-06-19T03:12:50;4.85;;;3.25;;
60014;SDS011;45867;52.480;6.056;2023-06-19T03:15:15;6.65;;;3.80;;
60014;SDS011;45867;52.480;6.056;2023-06-19T03:17:41;6.53;;;4.00;;
60014;SDS011;45867;52.480;6.056;2023-06-19T03:20:06;6.00;;;3.60;;
60014;SDS011;45867;52.480;6.056;2023-06-19T03:22:34;4.68;;;3.22;;
60014;SDS011;45867;52.480;6.056;2023-06-19T03:24:59;8.80;;;3.08;;
60014;SDS011;45867;52.480;6.056;2023-06-19T03:27:25;6.75;;;3.40;;
60014;SDS011;45867;52.480;6.056;2023-06-19T03:29:52;6.00;;;3.30;;
60014;SDS011;45867;52.480;6.056;2023-06-19T03:32:18;5.13;;;3.33;;
60014;SDS011;45867;52.480;6.056;2023-06-19T03:34:44;7.43;;;3.40;;
60014;SDS011;45867;52.480;6.056;2023-06-19T03:37:09;7.32;;;3.15;;
60014;SDS011;45867;52.480;6.056;2023-06-19T03:39:34;9.13;;;3.40;;
60014;SDS011;45867;52.480;6.056;2023-06-19T03:42:00;5.88;;;3.45;;
60014;SDS011;45867;52.480;6.056;2023-06-19T03:44:25;4.55;;;3.20;;
60014;SDS011;45867;52.480;6.056;2023-06-19T03:46:50;4.47;;;3.28;;
60014;SDS011;45867;52.480;6.056;2023-06-19T03:49:16;4.50;;;3.05;;
60014;SDS011;45867;52.480;6.056;2023-06-19T03:51:42;4.93;;;3.08;;
60014;SDS011;45867;52.480;6.056;2023-06-19T03:54:07;5.60;;;3.22;;
60014;SDS011;45867;52.480;6.056;2023-06-19T03:56:32;6.00;;;3.20;;
60014;SDS011;45867;52.480;6.056;2023-06-19T03:58:58;5.57;;;3.13;;
60014;SDS011;45867;52.480;6.056;2023-06-19T04:01:23;9.75;;;3.20;;
60014;SDS011;45867;52.480;6.056;2023-06-19T04:03:48;5.30;;;3.10;;
60014;SDS011;45867;52.480;6.056;2023-06-19T04:06:13;7.63;;;3.25;;
60014;SDS011;45867;52.480;6.056;2023-06-19T04:08:39;4.45;;;3.10;;
60014;SDS011;45867;52.480;6.056;2023-06-19T04:11:04;5.18;;;3.38;;
60014;SDS011;45867;52.480;6.056;2023-06-19T04:13:29;5.47;;;3.50;;
60014;SDS011;45867;52.480;6.056;2023-06-19T04:15:55;6.28;;;3.47;;
60014;SDS011;45867;52.480;6.056;2023-06-19T04:18:20;6.80;;;3.03;;
60014;SDS011;45867;52.480;6.056;2023-06-19T04:20:45;6.15;;;3.38;;
60014;SDS011;45867;52.480;6.056;2023-06-19T04:23:11;6.25;;;3.30;;
60014;SDS011;45867;52.480;6.056;2023-06-19T04:25:36;5.43;;;3.30;;
60014;SDS011;45867;52.480;6.056;2023-06-19T04:28:02;5.78;;;3.20;;
60014;SDS011;45867;52.480;6.056;2023-06-19T04:30:30;5.38;;;3.67;;
60014;SDS011;45867;52.480;6.056;2023-06-19T04:32:57;5.90;;;3.20;;
60014;SDS011;45867;52.480;6.056;2023-06-19T04:35:23;6.00;;;3.35;;
60014;SDS011;45867;52.480;6.056;2023-06-19T04:37:48;5.07;;;3.20;;
60014;SDS011;45867;52.480;6.056;2023-06-19T04:40:14;4.90;;;3.47;;
60014;SDS011;45867;52.480;6.056;2023-06-19T04:42:39;6.05;;;3.70;;
60014;SDS011;45867;52.480;6.056;2023-06-19T04:45:05;4.90;;;3.35;;
60014;SDS011;45867;52.480;6.056;2023-06-19T04:47:32;4.75;;;3.08;;
60014;SDS011;45867;52.480;6.056;2023-06-19T04:49:58;5.45;;;3.65;;
60014;SDS011;45867;52.480;6.056;2023-06-19T04:52:24;5.63;;;3.50;;
60014;SDS011;45867;52.480;6.056;2023-06-19T04:54:50;5.88;;;3.42;;
60014;SDS011;45867;52.480;6.056;2023-06-19T04:57:18;6.85;;;3.45;;
60014;SDS011;45867;52.480;6.056;2023-06-19T04:59:43;6.53;;;3.50;;
60014;SDS011;45867;52.480;6.056;2023-06-19T05:02:09;4.80;;;2.90;;
60014;SDS011;45867;52.480;6.056;2023-06-19T05:04:35;5.93;;;4.00;;
60014;SDS011;45867;52.480;6.056;2023-06-19T05:07:01;5.57;;;3.38;;
60014;SDS011;45867;52.480;6.056;2023-06-19T05:09:26;5.53;;;3.55;;
60014;SDS011;45867;52.480;6.056;2023-06-19T05:11:51;11.02;;;3.45;;
60014;SDS011;45867;52.480;6.056;2023-06-19T05:14:16;5.10;;;3.70;;
60014;SDS011;45867;52.480;6.056;2023-06-19T05:16:42;6.78;;;4.18;;
60014;SDS011;45867;52.480;6.056;2023-06-19T05:19:08;8.95;;;4.22;;
60014;SDS011;45867;52.480;6.056;2023-06-19T05:21:34;6.57;;;4.65;;
60014;SDS011;45867;52.480;6.056;2023-06-19T05:23:59;6.53;;;4.78;;
60014;SDS011;45867;52.480;6.056;2023-06-19T05:26:24;7.40;;;4.72;;
60014;SDS011;45867;52.480;6.056;2023-06-19T05:28:51;7.35;;;5.03;;
60014;SDS011;45867;52.480;6.056;2023-06-19T05:31:16;9.20;;;5.35;;
60014;SDS011;45867;52.480;6.056;2023-06-19T05:33:43;9.10;;;5.32;;
60014;SDS011;45867;52.480;6.056;2023-06-19T05:36:09;9.77;;;5.40;;
60014;SDS011;45867;52.480;6.056;2023-06-19T05:38:34;9.52;;;5.30;;
60014;SDS011;45867;52.480;6.056;2023-06-19T05:41:00;9.35;;;4.60;;
60014;SDS011;45867;52.480;6.056;2023-06-19T05:43:25;9.27;;;5.30;;
60014;SDS011;45867;52.480;6.056;2023-06-19T05:45:51;12.68;;;5.32;;
60014;SDS011;45867;52.480;6.056;2023-06-19T05:48:17;8.77;;;5.28;;
60014;SDS011;45867;52.480;6.056;2023-06-19T05:50:43;8.75;;;5.65;;
60014;SDS011;45867;52.480;6.056;2023-06-19T05:53:08;10.30;;;5.72;;
60014;SDS011;45867;52.480;6.056;2023-06-19T05:55:34;11.25;;;5.32;;
60014;SDS011;45867;52.480;6.056;2023-06-19T05:57:59;8.82;;;5.75;;
60014;SDS011;45867;52.480;6.056;2023-06-19T06:00:24;10.45;;;5.68;;
60014;SDS011;45867;52.480;6.056;2023-06-19T06:02:50;9.23;;;5.43;;
60014;SDS011;45867;52.480;6.056;2023-06-19T06:05:16;10.15;;;5.95;;
60014;SDS011;45867;52.480;6.056;2023-06-19T06:07:44;11.68;;;6.20;;
60014;SDS011;45867;52.480;6.056;2023-06-19T06:10:09;13.30;;;6.20;;
60014;SDS011;45867;52.480;6.056;2023-06-19T06:12:35;11.25;;;5.88;;
60014;SDS011;45867;52.480;6.056;2023-06-19T06:15:01;11.30;;;6.30;;
60014;SDS011;45867;52.480;6.056;2023-06-19T06:17:27;9.15;;;5.95;;
60014;SDS011;45867;52.480;6.056;2023-06-19T06:19:53;9.82;;;5.55;;
60014;SDS011;45867;52.480;6.056;2023-06-19T06:22:18;11.25;;;5.90;;
60014;SDS011;45867;52.480;6.056;2023-06-19T06:24:43;8.10;;;5.15;;
60014;SDS011;45867;52.480;6.056;2023-06-19T06:27:09;9.32;;;5.22;;
60014;SDS011;45867;52.480;6.056;2023-06-19T06:29:35;9.93;;;5.40;;
60014;SDS011;45867;52.480;6.056;2023-06-19T06:32:05;12.38;;;5.70;;
60014;SDS011;45867;52.480;6.056;2023-06-19T06:34:32;7.47;;;4.70;;
60014;SDS011;45867;52.480;6.056;2023-06-19T06:36:58;7.80;;;4.35;;
60014;SDS011;45867;52.480;6.056;2023-06-19T06:39:24;5.38;;;3.83;;
60014;SDS011;45867;52.480;6.056;2023-06-19T06:41:49;10.73;;;4.38;;
60014;SDS011;45867;52.480;6.056;2023-06-19T06:44:15;21.48;;;4.72;;
60014;SDS011;45867;52.480;6.056;2023-06-19T06:46:40;12.70;;;5.20;;
60014;SDS011;45867;52.480;6.056;2023-06-19T06:49:05;6.60;;;3.88;;
60014;SDS011;45867;52.480;6.056;2023-06-19T06:51:31;4.55;;;2.88;;
60014;SDS011;45867;52.480;6.056;2023-06-19T06:53:56;5.90;;;2.85;;
60014;SDS011;45867;52.480;6.056;2023-06-19T06:56:21;4.93;;;2.38;;
60014;SDS011;45867;52.480;6.056;2023-06-19T06:58:47;6.57;;;2.80;;
60014;SDS011;45867;52.480;6.056;2023-06-19T07:01:12;6.07;;;2.80;;
60014;SDS011;45867;52.480;6.056;2023-06-19T07:03:37;4.75;;;2.33;;
60014;SDS011;45867;52.480;6.056;2023-06-19T07:06:04;4.80;;;2.80;;
60014;SDS011;45867;52.480;6.056;2023-06-19T07:08:29;4.60;;;2.33;;
60014;SDS011;45867;52.480;6.056;2023-06-19T07:10:55;3.22;;;2.25;;
60014;SDS011;45867;52.480;6.056;2023-06-19T07:13:23;4.97;;;2.60;;
60014;SDS011;45867;52.480;6.056;2023-06-19T07:15:48;10.88;;;3.10;;
60014;SDS011;45867;52.480;6.056;2023-06-19T07:18:14;5.95;;;2.88;;
60014;SDS011;45867;52.480;6.056;2023-06-19T07:20:39;4.82;;;3.20;;
60014;SDS011;45867;52.480;6.056;2023-06-19T07:23:04;7.75;;;3.20;;
60014;SDS011;45867;52.480;6.056;2023-06-19T07:25:31;7.80;;;3.20;;
60014;SDS011;45867;52.480;6.056;2023-06-19T07:27:58;4.78;;;3.20;;
60014;SDS011;45867;52.480;6.056;2023-06-19T07:30:24;5.47;;;2.83;;
60014;SDS011;45867;52.480;6.056;2023-06-19T07:32:49;10.75;;;3.53;;
60014;SDS011;45867;52.480;6.056;2023-06-19T07:35:15;7.78;;;3.70;;
60014;SDS011;45867;52.480;6.056;2023-06-19T07:37:40;8.07;;;4.07;;
60014;SDS011;45867;52.480;6.056;2023-06-19T07:40:06;8.00;;;4.07;;
60014;SDS011;45867;52.480;6.056;2023-06-19T07:42:31;8.13;;;5.07;;
60014;SDS011;45867;52.480;6.056;2023-06-19T07:44:57;7.75;;;4.55;;
60014;SDS011;45867;52.480;6.056;2023-06-19T07:47:22;9.02;;;4.90;;
60014;SDS011;45867;52.480;6.056;2023-06-19T07:49:47;10.90;;;4.80;;
60014;SDS011;45867;52.480;6.056;2023-06-19T07:52:13;8.63;;;4.90;;
60014;SDS011;45867;52.480;6.056;2023-06-19T07:54:48;9.50;;;5.30;;
60014;SDS011;45867;52.480;6.056;2023-06-19T07:57:17;9.52;;;6.07;;
60014;SDS011;45867;52.480;6.056;2023-06-19T07:59:42;8.50;;;6.57;;
60014;SDS011;45867;52.480;6.056;2023-06-19T08:02:08;11.98;;;7.38;;
60014;SDS011;45867;52.480;6.056;2023-06-19T08:04:33;9.70;;;6.75;;
60014;SDS011;45867;52.480;6.056;2023-06-19T08:06:58;19.38;;;7.00;;
60014;SDS011;45867;52.480;6.056;2023-06-19T08:09:23;14.52;;;7.32;;
60014;SDS011;45867;52.480;6.056;2023-06-19T08:11:49;13.70;;;7.90;;
60014;SDS011;45867;52.480;6.056;2023-06-19T08:14:14;24.15;;;8.23;;
60014;SDS011;45867;52.480;6.056;2023-06-19T08:16:39;25.58;;;7.55;;
60014;SDS011;45867;52.480;6.056;2023-06-19T08:19:05;11.43;;;6.68;;
60014;SDS011;45867;52.480;6.056;2023-06-19T08:21:30;18.35;;;7.10;;
60014;SDS011;45867;52.480;6.056;2023-06-19T08:23:55;33.17;;;9.48;;
60014;SDS011;45867;52.480;6.056;2023-06-19T08:26:21;37.85;;;8.07;;
60014;SDS011;45867;52.480;6.056;2023-06-19T08:28:46;9.90;;;6.22;;
60014;SDS011;45867;52.480;6.056;2023-06-19T08:31:11;11.32;;;6.55;;
60014;SDS011;45867;52.480;6.056;2023-06-19T08:33:37;13.45;;;6.28;;
60014;SDS011;45867;52.480;6.056;2023-06-19T08:36:02;24.13;;;7.40;;
60014;SDS011;45867;52.480;6.056;2023-06-19T08:38:27;17.05;;;6.72;;
60014;SDS011;45867;52.480;6.056;2023-06-19T08:40:53;42.47;;;8.98;;
60014;SDS011;45867;52.480;6.056;2023-06-19T08:43:18;41.60;;;9.23;;
60014;SDS011;45867;52.480;6.056;2023-06-19T08:45:52;10.43;;;5.97;;
60014;SDS011;45867;52.480;6.056;2023-06-19T08:48:23;12.90;;;6.63;;
60014;SDS011;45867;52.480;6.056;2023-06-19T08:50:49;11.27;;;6.32;;
60014;SDS011;45867;52.480;6.056;2023-06-19T08:53:14;16.13;;;7.57;;
60014;SDS011;45867;52.480;6.056;2023-06-19T08:55:40;9.48;;;6.50;;
60014;SDS011;45867;52.480;6.056;2023-06-19T08:58:05;12.05;;;6.60;;
60014;SDS011;45867;52.480;6.056;2023-06-19T09:00:30;10.80;;;5.85;;
60014;SDS011;45867;52.480;6.056;2023-06-19T09:03:00;10.95;;;6.35;;
60014;SDS011;45867;52.480;6.056;2023-06-19T09:05:27;11.90;;;6.57;;
60014;SDS011;45867;52.480;6.056;2023-06-19T09:07:56;15.80;;;6.90;;
60014;SDS011;45867;52.480;6.056;2023-06-19T09:10:28;11.63;;;6.50;;
60014;SDS011;45867;52.480;6.056;2023-06-19T09:13:00;11.05;;;6.65;;
60014;SDS011;45867;52.480;6.056;2023-06-19T09:15:28;12.25;;;6.38;;
60014;SDS011;45867;52.480;6.056;2023-06-19T09:18:04;17.48;;;6.30;;
60014;SDS011;45867;52.480;6.056;2023-06-19T09:20:34;11.68;;;6.00;;
60014;SDS011;45867;52.480;6.056;2023-06-19T09:23:03;15.60;;;6.70;;
60014;SDS011;45867;52.480;6.056;2023-06-19T09:25:29;10.75;;;5.93;;
60014;SDS011;45867;52.480;6.056;2023-06-19T09:27:54;22.50;;;7.28;;
60014;SDS011;45867;52.480;6.056;2023-06-19T09:30:21;13.82;;;7.10;;
60014;SDS011;45867;52.480;6.056;2023-06-19T09:32:47;17.38;;;6.80;;
60014;SDS011;45867;52.480;6.056;2023-06-19T09:35:12;11.20;;;7.07;;
60014;SDS011;45867;52.480;6.056;2023-06-19T09:37:38;13.27;;;7.00;;
60014;SDS011;45867;52.480;6.056;2023-06-19T09:40:05;9.43;;;6.28;;
60014;SDS011;45867;52.480;6.056;2023-06-19T09:42:38;9.65;;;6.68;;
60014;SDS011;45867;52.480;6.056;2023-06-19T09:45:05;9.90;;;6.93;;
60014;SDS011;45867;52.480;6.056;2023-06-19T09:47:39;12.27;;;6.57;;
60014;SDS011;45867;52.480;6.056;2023-06-19T09:50:08;12.40;;;5.90;;
60014;SDS011;45867;52.480;6.056;2023-06-19T09:52:35;11.18;;;5.80;;
60014;SDS011;45867;52.480;6.056;2023-06-19T09:55:02;8.57;;;5.45;;
60014;SDS011;45867;52.480;6.056;2023-06-19T09:57:29;13.48;;;5.40;;
60014;SDS011;45867;52.480;6.056;2023-06-19T09:59:57;17.13;;;6.47;;
60014;SDS011;45867;52.480;6.056;2023-06-19T10:02:25;12.52;;;6.80;;
60014;SDS011;45867;52.480;6.056;2023-06-19T10:04:52;17.27;;;6.30;;
60014;SDS011;45867;52.480;6.056;2023-06-19T10:07:24;10.30;;;6.80;;
60014;SDS011;45867;52.480;6.056;2023-06-19T10:10:09;13.27;;;8.10;;
60014;SDS011;45867;52.480;6.056;2023-06-19T10:12:48;14.38;;;8.25;;
60014;SDS011;45867;52.480;6.056;2023-06-19T10:17:50;11.80;;;7.05;;
60014;SDS011;45867;52.480;6.056;2023-06-19T10:22:55;13.52;;;7.30;;
60014;SDS011;45867;52.480;6.056;2023-06-19T10:25:42;14.57;;;7.82;;
60014;SDS011;45867;52.480;6.056;2023-06-19T10:28:23;11.95;;;7.90;;
60014;SDS011;45867;52.480;6.056;2023-06-19T10:31:03;10.90;;;7.75;;
60014;SDS011;45867;52.480;6.056;2023-06-19T10:33:31;15.52;;;7.35;;
60014;SDS011;45867;52.480;6.056;2023-06-19T10:35:58;9.52;;;6.47;;
60014;SDS011;45867;52.480;6.056;2023-06-19T10:38:25;13.85;;;6.70;;
60014;SDS011;45867;52.480;6.056;2023-06-19T10:40:51;10.50;;;6.38;;
60014;SDS011;45867;52.480;6.056;2023-06-19T10:43:20;10.15;;;6.18;;
60014;SDS011;45867;52.480;6.056;2023-06-19T10:45:47;9.13;;;6.63;;
60014;SDS011;45867;52.480;6.056;2023-06-19T10:48:18;9.85;;;6.97;;
60014;SDS011;45867;52.480;6.056;2023-06-19T10:53:09;10.40;;;5.67;;
60014;SDS011;45867;52.480;6.056;2023-06-19T10:55:35;9.40;;;6.30;;
60014;SDS011;45867;52.480;6.056;2023-06-19T10:58:00;10.02;;;6.40;;
60014;SDS011;45867;52.480;6.056;2023-06-19T11:00:27;11.32;;;6.10;;
60014;SDS011;45867;52.480;6.056;2023-06-19T11:02:56;14.27;;;6.68;;
60014;SDS011;45867;52.480;6.056;2023-06-19T11:05:23;12.27;;;7.30;;
60014;SDS011;45867;52.480;6.056;2023-06-19T11:07:51;10.98;;;6.97;;
60014;SDS011;45867;52.480;6.056;2023-06-19T11:10:21;15.40;;;7.50;;
60014;SDS011;45867;52.480;6.056;2023-06-19T11:12:48;15.35;;;6.70;;
60014;SDS011;45867;52.480;6.056;2023-06-19T11:15:14;12.55;;;7.55;;
60014;SDS011;45867;52.480;6.056;2023-06-19T11:17:40;14.32;;;7.82;;
60014;SDS011;45867;52.480;6.056;2023-06-19T11:20:09;12.90;;;7.78;;
60014;SDS011;45867;52.480;6.056;2023-06-19T11:22:39;11.32;;;7.97;;
60014;SDS011;45867;52.480;6.056;2023-06-19T11:25:06;15.52;;;7.95;;
60014;SDS011;45867;52.480;6.056;2023-06-19T11:27:32;14.07;;;7.82;;
60014;SDS011;45867;52.480;6.056;2023-06-19T11:30:00;15.60;;;8.52;;
60014;SDS011;45867;52.480;6.056;2023-06-19T11:32:33;13.35;;;7.72;;
60014;SDS011;45867;52.480;6.056;2023-06-19T11:35:06;15.25;;;8.48;;
60014;SDS011;45867;52.480;6.056;2023-06-19T11:37:36;13.23;;;8.05;;
60014;SDS011;45867;52.480;6.056;2023-06-19T11:40:05;14.32;;;7.82;;
60014;SDS011;45867;52.480;6.056;2023-06-19T11:42:43;13.88;;;8.55;;
60014;SDS011;45867;52.480;6.056;2023-06-19T11:45:14;16.10;;;9.55;;
60014;SDS011;45867;52.480;6.056;2023-06-19T11:47:39;16.17;;;9.63;;
60014;SDS011;45867;52.480;6.056;2023-06-19T11:50:05;16.50;;;8.85;;
60014;SDS011;45867;52.480;6.056;2023-06-19T11:52:30;17.58;;;9.38;;
60014;SDS011;45867;52.480;6.056;2023-06-19T11:54:56;16.70;;;8.73;;
60014;SDS011;45867;52.480;6.056;2023-06-19T11:57:21;17.98;;;9.07;;
60014;SDS011;45867;52.480;6.056;2023-06-19T11:59:47;16.95;;;9.70;;
60014;SDS011;45867;52.480;6.056;2023-06-19T12:02:12;18.30;;;10.57;;
60014;SDS011;45867;52.480;6.056;2023-06-19T12:04:38;14.00;;;8.05;;
60014;SDS011;45867;52.480;6.056;2023-06-19T12:07:03;17.00;;;9.93;;
60014;SDS011;45867;52.480;6.056;2023-06-19T12:09:29;16.00;;;10.98;;
60014;SDS011;45867;52.480;6.056;2023-06-19T12:11:55;13.48;;;10.43;;
60014;SDS011;45867;52.480;6.056;2023-06-19T12:14:20;14.80;;;9.68;;
60014;SDS011;45867;52.480;6.056;2023-06-19T12:16:46;16.08;;;9.10;;
60014;SDS011;45867;52.480;6.056;2023-06-19T12:19:12;14.48;;;9.80;;
60014;SDS011;45867;52.480;6.056;2023-06-19T12:21:37;15.05;;;9.98;;
60014;SDS011;45867;52.480;6.056;2023-06-19T12:24:02;15.98;;;9.88;;
60014;SDS011;45867;52.480;6.056;2023-06-19T12:26:28;16.60;;;9.82;;
60014;SDS011;45867;52.480;6.056;2023-06-19T12:28:54;18.27;;;10.27;;
60014;SDS011;45867;52.480;6.056;2023-06-19T12:31:19;17.15;;;10.38;;
60014;SDS011;45867;52.480;6.056;2023-06-19T12:33:44;15.45;;;9.88;;
60014;SDS011;45867;52.480;6.056;2023-06-19T12:36:16;16.70;;;10.30;;
60014;SDS011;45867;52.480;6.056;2023-06-19T12:38:41;16.85;;;8.00;;
60014;SDS011;45867;52.480;6.056;2023-06-19T12:41:06;11.75;;;7.53;;
60014;SDS011;45867;52.480;6.056;2023-06-19T12:43:32;13.05;;;8.27;;
60014;SDS011;45867;52.480;6.056;2023-06-19T12:45:58;16.45;;;8.00;;
60014;SDS011;45867;52.480;6.056;2023-06-19T12:48:25;12.35;;;6.70;;
60014;SDS011;45867;52.480;6.056;2023-06-19T12:50:51;15.25;;;7.07;;
60014;SDS011;45867;52.480;6.056;2023-06-19T12:53:16;13.32;;;7.10;;
60014;SDS011;45867;52.480;6.056;2023-06-19T12:55:42;14.68;;;6.50;;
60014;SDS011;45867;52.480;6.056;2023-06-19T12:58:08;14.13;;;7.30;;
60014;SDS011;45867;52.480;6.056;2023-06-19T13:00:33;10.48;;;6.97;;
60014;SDS011;45867;52.480;6.056;2023-06-19T13:02:59;13.55;;;7.57;;
60014;SDS011;45867;52.480;6.056;2023-06-19T13:05:24;15.23;;;7.07;;
60014;SDS011;45867;52.480;6.056;2023-06-19T13:07:49;9.38;;;7.55;;
60014;SDS011;45867;52.480;6.056;2023-06-19T13:10:15;14.45;;;8.02;;
60014;SDS011;45867;52.480;6.056;2023-06-19T13:12:40;14.18;;;7.95;;
60014;SDS011;45867;52.480;6.056;2023-06-19T13:15:06;10.77;;;6.88;;
60014;SDS011;45867;52.480;6.056;2023-06-19T13:17:31;13.02;;;5.93;;
60014;SDS011;45867;52.480;6.056;2023-06-19T13:19:57;10.00;;;5.45;;
60014;SDS011;45867;52.480;6.056;2023-06-19T13:22:22;12.90;;;6.13;;
60014;SDS011;45867;52.480;6.056;2023-06-19T13:24:47;11.40;;;6.20;;
60014;SDS011;45867;52.480;6.056;2023-06-19T13:27:13;12.18;;;6.63;;
60014;SDS011;45867;52.480;6.056;2023-06-19T13:29:38;14.00;;;6.57;;
60014;SDS011;45867;52.480;6.056;2023-06-19T13:32:05;8.95;;;5.78;;
60014;SDS011;45867;52.480;6.056;2023-06-19T13:34:31;10.27;;;6.28;;
60014;SDS011;45867;52.480;6.056;2023-06-19T13:36:56;9.55;;;6.28;;
60014;SDS011;45867;52.480;6.056;2023-06-19T13:39:21;12.65;;;6.45;;
60014;SDS011;45867;52.480;6.056;2023-06-19T13:41:47;9.50;;;6.05;;
60014;SDS011;45867;52.480;6.056;2023-06-19T13:44:13;9.75;;;5.65;;
60014;SDS011;45867;52.480;6.056;2023-06-19T13:46:38;10.23;;;6.18;;
60014;SDS011;45867;52.480;6.056;2023-06-19T13:49:04;9.35;;;6.40;;
60014;SDS011;45867;52.480;6.056;2023-06-19T13:51:29;9.57;;;6.07;;
60014;SDS011;45867;52.480;6.056;2023-06-19T13:53:55;9.40;;;6.05;;
60014;SDS011;45867;52.480;6.056;2023-06-19T13:56:20;9.85;;;5.75;;
60014;SDS011;45867;52.480;6.056;2023-06-19T13:58:46;8.85;;;5.80;;
60014;SDS011;45867;52.480;6.056;2023-06-19T14:01:11;15.68;;;6.38;;
60014;SDS011;45867;52.480;6.056;2023-06-19T14:03:37;8.65;;;5.90;;
60014;SDS011;45867;52.480;6.056;2023-06-19T14:06:06;9.05;;;5.55;;
60014;SDS011;45867;52.480;6.056;2023-06-19T14:08:32;20.50;;;6.20;;
60014;SDS011;45867;52.480;6.056;2023-06-19T14:10:57;23.40;;;5.68;;
60014;SDS011;45867;52.480;6.056;2023-06-19T14:13:23;8.32;;;5.47;;
60014;SDS011;45867;52.480;6.056;2023-06-19T14:15:48;8.02;;;5.28;;
60014;SDS011;45867;52.480;6.056;2023-06-19T14:18:13;12.73;;;5.80;;
60014;SDS011;45867;52.480;6.056;2023-06-19T14:20:39;9.48;;;5.30;;
60014;SDS011;45867;52.480;6.056;2023-06-19T14:23:06;7.68;;;5.25;;
60014;SDS011;45867;52.480;6.056;2023-06-19T14:25:31;8.05;;;5.20;;
60014;SDS011;45867;52.480;6.056;2023-06-19T14:27:57;8.20;;;5.15;;
60014;SDS011;45867;52.480;6.056;2023-06-19T14:30:22;10.30;;;5.57;;
60014;SDS011;45867;52.480;6.056;2023-06-19T14:32:48;14.70;;;5.60;;
60014;SDS011;45867;52.480;6.056;2023-06-19T14:35:13;15.18;;;4.85;;
60014;SDS011;45867;52.480;6.056;2023-06-19T14:37:38;8.18;;;5.22;;
60014;SDS011;45867;52.480;6.056;2023-06-19T14:40:04;11.70;;;4.97;;
60014;SDS011;45867;52.480;6.056;2023-06-19T14:42:33;7.60;;;5.22;;
60014;SDS011;45867;52.480;6.056;2023-06-19T14:44:59;8.95;;;5.43;;
60014;SDS011;45867;52.480;6.056;2023-06-19T14:47:24;8.63;;;5.35;;
60014;SDS011;45867;52.480;6.056;2023-06-19T14:49:50;8.95;;;5.00;;